createdAt,value
2023-03-17T04:57:28.311Z,4.45
2023-03-17T04:59:54.913Z,4.83
2023-03-17T05:02:21.605Z,3.47
2023-03-17T05:04:48.292Z,3.55
2023-03-17T05:07:15.119Z,3.35
2023-03-17T05:09:42.008Z,3.55
2023-03-17T05:12:09.993Z,3.53
2023-03-17T05:14:37.099Z,3.88
2023-03-17T05:17:03.712Z,4.00
2023-03-17T05:19:30.306Z,3.88
2023-03-17T05:21:57.965Z,3.25
2023-03-17T05:24:24.770Z,3.20
2023-03-17T05:26:51.354Z,3.53
2023-03-17T05:29:17.952Z,2.90
2023-03-17T05:31:44.751Z,3.42
2023-03-17T05:34:11.370Z,3.67
2023-03-17T05:36:38.009Z,3.57
2023-03-17T05:39:05.231Z,3.60
2023-03-17T05:41:32.092Z,3.42
2023-03-17T05:43:58.762Z,3.47
2023-03-17T05:46:25.473Z,4.30
2023-03-17T05:48:52.500Z,3.20
2023-03-17T05:51:19.205Z,4.00
2023-03-17T05:53:45.986Z,3.83
2023-03-17T05:56:13.455Z,3.58
2023-03-17T05:58:40.053Z,3.67
2023-03-17T06:01:06.596Z,4.20
2023-03-17T06:03:33.408Z,4.18
2023-03-17T06:06:00.758Z,3.97
2023-03-17T06:08:27.536Z,4.65
2023-03-17T06:10:54.557Z,4.50
2023-03-17T06:13:21.466Z,4.47
2023-03-17T06:15:48.923Z,4.28
2023-03-17T06:18:15.793Z,4.60
2023-03-17T06:20:43.101Z,5.03
2023-03-17T06:23:09.788Z,4.82
2023-03-17T06:25:37.318Z,5.50
2023-03-17T06:28:05.847Z,5.80
2023-03-17T06:30:34.102Z,5.70
2023-03-17T06:33:02.303Z,6.45
2023-03-17T06:35:30.366Z,6.57
2023-03-17T06:37:58.214Z,6.63
2023-03-17T06:40:25.440Z,7.00
2023-03-17T06:42:52.841Z,7.97
2023-03-17T06:45:19.916Z,7.45
2023-03-17T06:47:46.815Z,7.70
2023-03-17T06:50:14.801Z,7.13
2023-03-17T06:52:42.200Z,8.30
2023-03-17T06:55:09.574Z,7.53
2023-03-17T06:57:36.879Z,7.05
2023-03-17T07:00:06.957Z,6.97
2023-03-17T07:02:34.847Z,7.27
2023-03-17T07:05:02.705Z,5.95
2023-03-17T07:07:30.141Z,5.97
2023-03-17T07:09:57.726Z,6.55
2023-03-17T07:12:24.760Z,6.47
2023-03-17T07:14:52.410Z,6.70
2023-03-17T07:17:19.855Z,6.72
2023-03-17T07:19:47.138Z,7.10
2023-03-17T07:22:14.341Z,7.57
2023-03-17T07:24:45.069Z,6.88
2023-03-17T07:27:12.104Z,6.33
2023-03-17T07:29:39.399Z,7.70
2023-03-17T07:32:08.342Z,6.15
2023-03-17T07:34:36.212Z,6.80
2023-03-17T07:37:03.752Z,6.88
2023-03-17T07:39:30.530Z,7.50
2023-03-17T07:41:58.272Z,6.63
2023-03-17T07:44:26.259Z,7.47
2023-03-17T07:46:53.945Z,6.68
2023-03-17T07:49:38.095Z,6.45
2023-03-17T07:52:08.940Z,6.37
2023-03-17T07:54:37.169Z,6.43
2023-03-17T07:57:06.202Z,6.80
2023-03-17T07:59:33.007Z,7.25
2023-03-17T08:02:01.846Z,7.35
2023-03-17T08:04:29.475Z,6.90
2023-03-17T08:06:57.721Z,6.90
2023-03-17T08:09:26.084Z,6.53
2023-03-17T08:11:53.672Z,7.32
2023-03-17T08:14:20.741Z,7.18
2023-03-17T08:16:48.015Z,6.40
2023-03-17T08:19:15.200Z,5.70
2023-03-17T08:21:42.396Z,5.70
2023-03-17T08:24:10.192Z,6.32
2023-03-17T08:26:38.137Z,6.85
2023-03-17T08:29:08.508Z,6.10
2023-03-17T08:31:36.246Z,5.75
2023-03-17T08:34:05.076Z,6.10
2023-03-17T08:36:32.076Z,5.40
2023-03-17T08:38:59.386Z,5.28
2023-03-17T08:41:28.341Z,4.87
2023-03-17T08:43:55.655Z,5.32
2023-03-17T08:46:28.410Z,4.47
2023-03-17T08:48:57.025Z,4.35
2023-03-17T08:51:26.820Z,4.13
2023-03-17T08:53:55.305Z,3.53
2023-03-17T08:56:23.228Z,3.97
2023-03-17T08:58:50.898Z,3.30
2023-03-17T09:01:19.164Z,3.00
2023-03-17T09:03:47.024Z,3.38
2023-03-17T09:06:14.562Z,3.50
2023-03-17T09:08:45.023Z,2.95
2023-03-17T09:11:15.061Z,2.97
2023-03-17T09:13:42.313Z,3.05
2023-03-17T09:16:10.270Z,3.40
2023-03-17T09:18:37.130Z,2.90
2023-03-17T09:21:05.386Z,3.55
2023-03-17T09:23:33.312Z,3.53
2023-03-17T09:26:01.854Z,3.63
2023-03-17T09:28:29.642Z,3.42
2023-03-17T09:31:01.689Z,2.70
2023-03-17T09:33:29.217Z,2.65
2023-03-17T09:35:59.678Z,3.13
2023-03-17T09:38:28.031Z,2.58
2023-03-17T09:41:01.108Z,2.88
2023-03-17T09:43:46.960Z,2.90
2023-03-17T09:46:50.912Z,2.90
2023-03-17T09:49:21.148Z,2.95
2023-03-17T09:51:49.207Z,3.20
2023-03-17T09:54:26.613Z,2.97
2023-03-17T09:57:18.403Z,3.17
2023-03-17T09:59:49.436Z,2.85
2023-03-17T10:02:24.169Z,3.15
2023-03-17T10:04:52.489Z,2.80
2023-03-17T10:07:57.742Z,3.42
2023-03-17T10:10:52.225Z,3.10
2023-03-17T10:13:19.127Z,3.97
2023-03-17T10:15:57.830Z,3.38
2023-03-17T10:18:27.571Z,2.97
2023-03-17T10:21:01.617Z,3.10
2023-03-17T10:23:32.018Z,3.13
